createdAt,value
2019-04-23T00:02:13.501Z,34.73
2019-04-23T00:04:20.176Z,34.91
2019-04-23T00:06:28.147Z,35.02
2019-04-23T00:08:41.611Z,35.12
2019-04-23T00:15:04.407Z,35.45
2019-04-23T00:16:57.830Z,35.51
2019-04-23T00:18:57.465Z,35.69
2019-04-23T00:21:13.941Z,35.68
2019-04-23T00:23:16.372Z,35.70
2019-04-23T00:29:53.421Z,36.18
2019-04-23T00:31:56.187Z,36.13
2019-04-23T00:33:59.047Z,36.31
2019-04-23T00:36:03.066Z,36.36
2019-04-23T00:38:11.877Z,36.40
2019-04-23T00:40:10.203Z,36.47
2019-04-23T00:42:23.987Z,36.70
2019-04-23T00:44:25.281Z,36.67
2019-04-23T00:46:28.922Z,36.91
2019-04-23T00:50:52.224Z,37.27
2019-04-23T00:52:45.698Z,37.34
2019-04-23T00:54:57.512Z,37.32
2019-04-23T00:57:01.396Z,37.44
2019-04-23T01:01:11.553Z,37.52
2019-04-23T01:05:24.842Z,37.56
2019-04-23T01:07:33.376Z,37.82
2019-04-23T01:09:44.130Z,37.82
2019-04-23T01:11:39.318Z,37.94
2019-04-23T01:14:01.123Z,38.01
2019-04-23T01:15:59.693Z,38.16
2019-04-23T01:20:18.861Z,38.43
2019-04-23T01:22:04.527Z,38.49
2019-04-23T01:24:31.290Z,38.68
2019-04-23T01:27:32.487Z,38.85
2019-04-23T01:29:22.248Z,38.85
2019-04-23T01:31:31.124Z,39.10
2019-04-23T01:33:42.446Z,39.07
2019-04-23T01:35:36.341Z,39.27
2019-04-23T01:37:41.105Z,39.39
2019-04-23T01:39:52.812Z,39.49
2019-04-23T01:42:03.915Z,39.70
2019-04-23T01:43:58.235Z,39.83
2019-04-23T01:46:09.528Z,39.96
2019-04-23T01:48:12.437Z,39.91
2019-04-23T01:50:20.187Z,40.02
2019-04-23T01:52:31.996Z,40.20
2019-04-23T01:54:32.467Z,40.10
2019-04-23T01:56:36.876Z,40.26
2019-04-23T01:58:59.140Z,40.32
2019-04-23T02:00:41.245Z,40.49
2019-04-23T02:03:09.434Z,40.46
2019-04-23T02:05:01.215Z,40.43
2019-04-23T02:07:09.036Z,40.59
2019-04-23T02:09:12.637Z,40.74
2019-04-23T02:11:11.730Z,40.77
2019-04-23T02:15:29.940Z,41.00
2019-04-23T02:17:38.362Z,40.97
2019-04-23T02:19:45.811Z,41.06
2019-04-23T02:22:01.179Z,41.07
2019-04-23T02:24:05.016Z,40.95
2019-04-23T02:26:09.050Z,41.12
2019-04-23T02:28:19.563Z,41.14
2019-04-23T02:32:40.404Z,41.18
2019-04-23T02:41:03.630Z,41.46
2019-04-23T02:45:09.623Z,41.62
2019-04-23T02:49:40.449Z,41.87
2019-04-23T02:51:42.356Z,42.04
2019-04-23T02:53:51.270Z,42.15
2019-04-23T03:02:15.575Z,42.47
2019-04-23T03:04:14.822Z,42.47
2019-04-23T03:06:16.395Z,42.39
2019-04-23T03:08:24.949Z,42.41
2019-04-23T03:10:21.028Z,42.60
2019-04-23T03:14:33.038Z,42.66
2019-04-23T03:18:58.179Z,42.84
2019-04-23T03:25:47.869Z,42.93
2019-04-23T03:35:17.847Z,43.26
2019-04-23T03:36:17.067Z,43.16
2019-04-23T03:38:41.718Z,43.28
2019-04-23T03:40:48.234Z,43.19
2019-04-23T03:44:53.380Z,43.47
2019-04-23T03:46:41.996Z,43.42
2019-04-23T03:50:58.708Z,43.49
2019-04-23T03:53:10.982Z,43.44
2019-04-23T03:55:10.418Z,43.53
2019-04-23T03:57:18.489Z,43.54
2019-04-23T03:59:29.020Z,43.69
2019-04-23T04:04:22.929Z,43.79
2019-04-23T04:07:47.302Z,43.77
2019-04-23T04:11:48.654Z,43.83
2019-04-23T04:16:00.746Z,44.04
2019-04-23T04:22:28.814Z,44.04
2019-04-23T04:24:35.996Z,44.04
2019-04-23T04:28:48.638Z,44.17
2019-04-23T04:32:56.572Z,44.17
2019-04-23T04:37:27.141Z,44.29
2019-04-23T04:38:58.989Z,44.41
2019-04-23T04:47:40.293Z,44.27
2019-04-23T04:49:44.072Z,44.36
2019-04-23T04:51:49.775Z,44.36
2019-04-23T04:55:57.250Z,44.15
2019-04-23T05:02:20.920Z,44.21
2019-04-23T05:04:19.875Z,44.03
2019-04-23T05:08:28.881Z,43.99
2019-04-23T05:12:36.240Z,43.99
2019-04-23T05:19:25.136Z,43.87
2019-04-23T05:21:43.589Z,43.82
2019-04-23T05:23:58.023Z,43.72
2019-04-23T05:25:46.225Z,43.75
2019-04-23T05:28:08.035Z,43.71
2019-04-23T05:30:02.961Z,43.58
2019-04-23T05:31:58.096Z,43.56
2019-04-23T05:34:14.557Z,43.45
2019-04-23T05:36:20.150Z,43.57
2019-04-23T05:38:29.970Z,43.59
2019-04-23T05:40:30.487Z,43.54
2019-04-23T05:42:26.650Z,43.40
2019-04-23T05:44:51.038Z,43.20
2019-04-23T05:46:52.294Z,43.15
2019-04-23T05:48:50.886Z,43.44
2019-04-23T05:51:01.137Z,43.63
2019-04-23T05:53:01.366Z,43.56
2019-04-23T05:55:01.614Z,43.32
2019-04-23T05:57:01.779Z,42.94
2019-04-23T05:59:12.967Z,42.99
2019-04-23T06:03:29.407Z,42.97
2019-04-23T06:05:40.096Z,43.01
2019-04-23T06:09:52.156Z,42.90
2019-04-23T06:12:01.529Z,42.84
2019-04-23T06:14:07.652Z,42.49
2019-04-23T06:16:16.370Z,42.75
2019-04-23T06:18:17.135Z,42.39
2019-04-23T06:20:31.604Z,42.52
2019-04-23T06:22:29.066Z,42.89
2019-04-23T06:24:39.809Z,42.74
2019-04-23T06:26:39.556Z,42.80
2019-04-23T06:28:44.026Z,42.59
2019-04-23T06:33:14.568Z,42.81
2019-04-23T06:34:56.781Z,42.72
2019-04-23T06:37:04.999Z,42.86
2019-04-23T06:39:08.435Z,43.08
2019-04-23T06:41:16.754Z,42.83
2019-04-23T06:43:35.186Z,42.60
2019-04-23T06:45:32.173Z,42.75
2019-04-23T06:47:36.137Z,42.46
2019-04-23T06:49:44.122Z,42.64
2019-04-23T06:52:02.415Z,42.33
2019-04-23T06:53:59.973Z,42.01
2019-04-23T06:56:06.762Z,41.92
2019-04-23T06:58:12.342Z,41.98
2019-04-23T07:00:16.679Z,41.57
2019-04-23T07:02:35.978Z,41.57
2019-04-23T07:04:30.596Z,41.32
2019-04-23T07:06:32.615Z,41.29
2019-04-23T07:10:54.319Z,41.39
2019-04-23T07:12:53.855Z,41.06
2019-04-23T07:16:58.935Z,41.24
2019-04-23T07:19:09.495Z,40.44
2019-04-23T07:21:15.449Z,40.48
2019-04-23T07:23:26.075Z,40.34
2019-04-23T07:25:23.961Z,39.97
2019-04-23T07:27:24.578Z,40.44
2019-04-23T07:29:32.667Z,40.11
2019-04-23T07:31:40.934Z,40.07
2019-04-23T07:33:54.722Z,39.69
2019-04-23T07:35:51.821Z,39.68
2019-04-23T07:38:09.307Z,39.50
2019-04-23T07:40:39.033Z,38.95
2019-04-23T07:45:17.121Z,38.57
2019-04-23T07:49:43.386Z,38.58
2019-04-23T07:51:37.142Z,38.57
2019-04-23T07:53:46.372Z,38.46
2019-04-23T07:58:00.255Z,38.37
2019-04-23T08:00:00.779Z,38.20
2019-04-23T08:02:11.549Z,37.91
2019-04-23T08:04:08.833Z,37.33
2019-04-23T08:06:12.020Z,37.34
2019-04-23T08:08:21.453Z,37.55
2019-04-23T08:10:29.739Z,37.30
2019-04-23T08:14:47.970Z,37.40
2019-04-23T08:16:36.808Z,37.41
2019-04-23T08:20:57.175Z,37.72
2019-04-23T08:23:12.576Z,37.79
2019-04-23T08:25:45.823Z,37.63
2019-04-23T08:28:00.489Z,37.79
2019-04-23T08:30:00.184Z,37.89
2019-04-23T08:34:23.908Z,37.40
2019-04-23T08:36:23.741Z,37.55
2019-04-23T08:38:32.302Z,37.60
2019-04-23T08:40:35.341Z,37.30
2019-04-23T08:45:15.593Z,36.86
2019-04-23T08:47:32.034Z,36.85
2019-04-23T08:49:36.203Z,36.63
2019-04-23T08:51:44.183Z,36.17
2019-04-23T08:55:51.628Z,36.28
2019-04-23T08:57:47.100Z,35.78
2019-04-23T08:59:57.398Z,35.78
2019-04-23T09:04:08.922Z,35.44
2019-04-23T09:06:16.149Z,35.98
2019-04-23T09:08:32.726Z,35.90
2019-04-23T09:10:32.431Z,35.75
2019-04-23T09:14:31.517Z,36.05
2019-04-23T09:16:48.812Z,36.09
2019-04-23T09:18:51.225Z,35.99
2019-04-23T09:20:49.692Z,36.18
2019-04-23T09:22:54.946Z,36.03
2019-04-23T09:25:14.807Z,35.92
2019-04-23T09:27:16.418Z,36.02
2019-04-23T09:32:00.742Z,36.50
2019-04-23T09:33:52.207Z,36.34
2019-04-23T09:38:31.866Z,36.15
2019-04-23T09:41:18.216Z,36.31
2019-04-23T09:43:12.209Z,35.94
2019-04-23T09:45:26.897Z,36.29
2019-04-23T09:47:58.080Z,36.13
2019-04-23T09:50:06.378Z,36.09
2019-04-23T09:52:09.226Z,35.60
2019-04-23T09:54:09.787Z,35.59
2019-04-23T09:56:17.703Z,35.31
2019-04-23T10:00:31.448Z,35.02
2019-04-23T10:02:21.971Z,35.25
2019-04-23T10:04:26.494Z,35.34
2019-04-23T10:06:22.657Z,35.44
2019-04-23T10:08:27.961Z,35.39
2019-04-23T10:10:28.283Z,35.39
2019-04-23T10:12:33.034Z,35.19
2019-04-23T10:14:36.850Z,35.21
2019-04-23T10:16:41.413Z,35.08
2019-04-23T10:18:47.014Z,34.96
2019-04-23T10:20:52.299Z,35.23
2019-04-23T10:22:57.311Z,35.67
2019-04-23T10:25:01.337Z,35.33
2019-04-23T10:27:06.102Z,36.04
2019-04-23T10:29:21.324Z,35.93
2019-04-23T10:31:25.301Z,34.96
2019-04-23T10:33:29.713Z,35.19
2019-04-23T10:35:43.227Z,35.23
2019-04-23T10:37:48.113Z,35.18
2019-04-23T10:39:52.537Z,35.00
2019-04-23T10:41:53.171Z,35.04
2019-04-23T10:44:05.092Z,34.90
2019-04-23T10:46:53.696Z,34.61
2019-04-23T10:49:48.497Z,35.03
2019-04-23T10:51:33.876Z,35.09
2019-04-23T10:53:38.267Z,33.78
2019-04-23T10:57:49.165Z,34.62
2019-04-23T10:59:50.360Z,34.62
2019-04-23T11:02:10.507Z,34.56
2019-04-23T11:04:23.509Z,34.78
2019-04-23T11:06:28.765Z,34.91
2019-04-23T11:08:18.878Z,34.96
2019-04-23T11:12:46.285Z,34.18
2019-04-23T11:15:18.333Z,34.04
2019-04-23T11:17:19.426Z,34.58
2019-04-23T11:19:24.872Z,35.26
2019-04-23T11:21:34.301Z,34.68
2019-04-23T11:23:39.233Z,34.19
2019-04-23T11:27:44.103Z,34.71
2019-04-23T11:29:51.822Z,34.31
2019-04-23T11:32:33.110Z,34.49
2019-04-23T11:36:33.398Z,33.96
2019-04-23T11:40:22.640Z,33.76
2019-04-23T11:42:26.218Z,33.94
2019-04-23T11:44:52.953Z,33.84
2019-04-23T11:48:51.461Z,33.92
2019-04-23T11:51:18.494Z,33.70
2019-04-23T11:55:03.156Z,34.16
2019-04-23T11:57:27.212Z,33.72
2019-04-23T11:59:17.526Z,33.72
2019-04-23T12:01:53.305Z,34.08
2019-04-23T12:04:05.679Z,34.50
2019-04-23T12:06:32.827Z,33.74
2019-04-23T12:08:57.085Z,33.58
2019-04-23T12:11:41.016Z,33.80
2019-04-23T12:13:20.738Z,33.42
2019-04-23T12:15:30.436Z,34.03
2019-04-23T12:17:24.694Z,33.94
2019-04-23T12:23:48.391Z,33.82
2019-04-23T12:25:51.562Z,33.75
2019-04-23T12:27:42.087Z,34.02
2019-04-23T12:30:00.870Z,34.11
2019-04-23T12:34:39.555Z,34.05
2019-04-23T12:36:51.398Z,33.84
2019-04-23T12:39:08.696Z,33.81
2019-04-23T12:41:10.619Z,33.80
2019-04-23T12:45:26.959Z,33.85
2019-04-23T12:47:40.174Z,34.08
2019-04-23T12:51:41.569Z,34.25
2019-04-23T12:53:50.717Z,34.12
2019-04-23T12:59:58.313Z,34.32
2019-04-23T13:02:03.368Z,34.31
2019-04-23T13:04:09.385Z,34.14
2019-04-23T13:06:13.252Z,34.14
2019-04-23T13:08:26.809Z,34.10
2019-04-23T13:10:28.306Z,34.13
2019-04-23T13:12:46.662Z,34.54
2019-04-23T13:14:41.649Z,34.54
2019-04-23T13:16:53.636Z,34.59
2019-04-23T13:18:52.777Z,34.64
2019-04-23T13:20:51.631Z,34.54
2019-04-23T13:23:06.306Z,34.28
2019-04-23T13:25:18.201Z,34.18
2019-04-23T13:27:30.667Z,34.02
2019-04-23T13:29:38.148Z,34.02
2019-04-23T13:31:29.259Z,34.29
2019-04-23T13:35:53.672Z,34.66
2019-04-23T13:37:58.939Z,34.37
2019-04-23T13:40:18.841Z,34.58
2019-04-23T13:42:07.612Z,34.82
2019-04-23T13:44:05.511Z,34.82
2019-04-23T13:46:14.095Z,34.66
2019-04-23T13:48:16.671Z,34.66
2019-04-23T13:50:40.344Z,34.46
2019-04-23T13:52:59.844Z,34.59
2019-04-23T13:57:14.430Z,34.61
2019-04-23T13:58:53.567Z,34.78
2019-04-23T14:01:18.568Z,35.00
2019-04-23T14:03:04.066Z,35.00
2019-04-23T14:05:23.931Z,34.75
2019-04-23T14:07:32.268Z,34.60
2019-04-23T14:11:47.911Z,35.09
2019-04-23T14:16:10.323Z,34.87
2019-04-23T14:18:19.637Z,34.78
2019-04-23T14:20:07.271Z,34.92
2019-04-23T14:22:40.567Z,35.23
2019-04-23T14:24:38.753Z,35.23
2019-04-23T14:26:29.549Z,35.53
2019-04-23T14:28:37.364Z,35.57
2019-04-23T14:30:38.403Z,35.57
2019-04-23T14:34:55.495Z,35.56
2019-04-23T14:38:57.331Z,35.66
2019-04-23T14:41:10.607Z,35.79
2019-04-23T14:45:29.837Z,35.51
2019-04-23T14:47:37.966Z,35.44
2019-04-23T14:49:34.096Z,35.37
2019-04-23T14:53:52.162Z,36.11
2019-04-23T14:55:57.192Z,36.07
2019-04-23T14:58:10.189Z,36.28
2019-04-23T15:02:14.557Z,36.37
2019-04-23T15:04:11.029Z,36.82
2019-04-23T15:06:39.887Z,36.47
2019-04-23T15:08:32.109Z,36.02
2019-04-23T15:10:34.362Z,34.53
2019-04-23T15:12:38.583Z,33.08
2019-04-23T15:17:03.317Z,31.70
2019-04-23T15:21:37.656Z,30.89
2019-04-23T15:29:27.551Z,30.44
2019-04-23T15:31:48.791Z,30.26
2019-04-23T15:34:00.621Z,29.75
2019-04-23T15:36:14.287Z,29.82
2019-04-23T15:40:18.336Z,29.87
2019-04-23T15:42:16.644Z,29.72
2019-04-23T15:48:31.396Z,30.69
2019-04-23T15:50:37.638Z,30.29
2019-04-23T15:52:56.024Z,30.29
2019-04-23T15:55:01.696Z,30.23
2019-04-23T15:56:55.134Z,30.13
2019-04-23T15:59:23.654Z,30.51
2019-04-23T16:02:54.453Z,30.02
2019-04-23T16:05:00.120Z,30.22
2019-04-23T16:07:07.301Z,30.51
2019-04-23T16:09:39.929Z,30.51
2019-04-23T16:14:11.315Z,30.89
2019-04-23T16:16:02.574Z,31.08
2019-04-23T16:18:13.839Z,31.50
2019-04-23T16:22:18.947Z,32.80
2019-04-23T16:24:20.405Z,33.28
2019-04-23T16:26:45.086Z,33.84
2019-04-23T16:29:03.013Z,34.02
2019-04-23T16:30:49.076Z,34.29
2019-04-23T16:35:29.158Z,34.84
2019-04-23T16:37:22.745Z,34.84
2019-04-23T16:39:21.675Z,35.05
2019-04-23T16:41:39.898Z,35.69
2019-04-23T16:43:40.406Z,39.73
2019-04-23T16:47:56.066Z,38.77
2019-04-23T16:50:04.546Z,38.11
2019-04-23T16:52:07.801Z,37.86
2019-04-23T16:54:15.271Z,37.64
2019-04-23T16:56:18.712Z,37.49
2019-04-23T16:58:25.235Z,37.60
2019-04-23T17:00:51.292Z,37.59
2019-04-23T17:02:34.197Z,37.59
2019-04-23T17:04:39.234Z,37.70
2019-04-23T17:06:54.366Z,37.84
2019-04-23T17:11:10.075Z,38.21
2019-04-23T17:13:04.924Z,38.44
2019-04-23T17:15:12.787Z,38.63
2019-04-23T17:17:06.473Z,38.84
2019-04-23T17:19:24.190Z,39.00
2019-04-23T17:21:24.058Z,38.94
2019-04-23T17:23:40.085Z,38.99
2019-04-23T17:27:48.935Z,39.11
2019-04-23T17:29:55.638Z,39.19
2019-04-23T17:32:07.067Z,39.20
2019-04-23T17:34:17.602Z,39.34
2019-04-23T17:38:59.494Z,39.34
2019-04-23T17:41:07.012Z,39.48
2019-04-23T17:43:05.873Z,39.68
2019-04-23T17:50:02.889Z,39.87
2019-04-23T17:51:42.634Z,39.84
2019-04-23T17:56:10.390Z,40.01
2019-04-23T17:58:16.120Z,40.11
2019-04-23T18:02:51.783Z,39.99
2019-04-23T18:04:22.585Z,40.05
2019-04-23T18:08:33.123Z,40.18
2019-04-23T18:10:41.513Z,40.35
2019-04-23T18:14:52.717Z,40.47
2019-04-23T18:16:55.524Z,40.47
2019-04-23T18:19:10.339Z,40.61
2019-04-23T18:21:44.434Z,40.60
2019-04-23T18:23:34.690Z,40.66
2019-04-23T18:30:10.977Z,40.79
2019-04-23T18:32:25.240Z,40.81
2019-04-23T18:34:47.027Z,40.88
2019-04-23T18:36:30.353Z,40.79
2019-04-23T18:42:54.216Z,41.00
2019-04-23T18:47:09.007Z,40.86
2019-04-23T18:49:10.869Z,40.95
2019-04-23T18:51:31.719Z,40.99
2019-04-23T18:53:35.278Z,41.05
2019-04-23T18:55:54.274Z,40.99
2019-04-23T18:57:55.299Z,40.99
2019-04-23T18:59:47.396Z,41.04
2019-04-23T19:02:02.513Z,41.16
2019-04-23T19:06:43.991Z,41.35
2019-04-23T19:09:02.883Z,41.52
2019-04-23T19:11:37.188Z,41.56
2019-04-23T19:15:38.032Z,41.80
2019-04-23T19:17:56.409Z,41.85
2019-04-23T19:20:01.118Z,41.96
2019-04-23T19:22:12.315Z,42.04
2019-04-23T19:23:54.767Z,42.05
2019-04-23T19:26:09.616Z,42.17
2019-04-23T19:28:30.224Z,42.27
2019-04-23T19:32:28.274Z,42.46
2019-04-23T19:36:52.564Z,42.72
2019-04-23T19:38:46.071Z,42.75
2019-04-23T19:40:56.681Z,42.84
2019-04-23T19:42:54.186Z,42.79
2019-04-23T19:44:57.374Z,42.82
2019-04-23T19:47:09.549Z,42.96
2019-04-23T19:51:18.703Z,43.14
2019-04-23T19:53:36.364Z,43.37
2019-04-23T19:55:31.520Z,43.41
2019-04-23T19:57:57.970Z,43.49
2019-04-23T19:59:47.621Z,43.38
2019-04-23T20:01:47.270Z,43.50
2019-04-23T20:06:02.958Z,43.60
2019-04-23T20:10:03.658Z,43.85
2019-04-23T20:12:15.564Z,43.90
2019-04-23T20:14:26.214Z,43.99
2019-04-23T20:16:40.044Z,44.00
2019-04-23T20:18:47.798Z,44.09
2019-04-23T20:25:10.781Z,44.33
2019-04-23T20:29:36.071Z,44.50
2019-04-23T20:33:55.142Z,44.48
2019-04-23T20:35:52.383Z,44.68
2019-04-23T20:38:19.018Z,44.78
2019-04-23T20:44:11.883Z,44.92
2019-04-23T20:46:36.791Z,45.04
2019-04-23T20:48:25.184Z,45.20
2019-04-23T20:50:27.614Z,45.28
2019-04-23T20:52:22.718Z,45.43
2019-04-23T20:54:49.298Z,45.66
2019-04-23T20:56:56.119Z,45.64
2019-04-23T21:01:26.947Z,45.91
2019-04-23T21:03:30.835Z,45.88
2019-04-23T21:05:15.229Z,45.98
2019-04-23T21:07:35.188Z,45.93
2019-04-23T21:11:40.631Z,46.17
2019-04-23T21:14:03.595Z,46.25
2019-04-23T21:15:45.294Z,46.37
2019-04-23T21:17:58.246Z,46.47
2019-04-23T21:20:08.847Z,46.81
2019-04-23T21:22:09.526Z,46.85
2019-04-23T21:24:08.736Z,47.07
2019-04-23T21:26:01.845Z,47.18
2019-04-23T21:30:58.970Z,47.42
2019-04-23T21:32:56.025Z,47.30
2019-04-23T21:35:04.939Z,47.29
2019-04-23T21:36:58.067Z,47.46
2019-04-23T21:39:41.838Z,47.52
2019-04-23T21:46:07.224Z,47.77
2019-04-23T21:52:11.783Z,48.24
2019-04-23T21:54:14.962Z,48.29
2019-04-23T21:56:31.256Z,48.38
2019-04-23T21:58:51.421Z,48.51
2019-04-23T22:00:53.085Z,48.53
2019-04-23T22:04:52.089Z,48.57
2019-04-23T22:06:52.753Z,48.53
2019-04-23T22:09:04.254Z,48.45
2019-04-23T22:11:36.254Z,48.39
2019-04-23T22:13:19.799Z,48.56
2019-04-23T22:15:26.552Z,48.49
2019-04-23T22:17:26.714Z,48.38
2019-04-23T22:19:27.330Z,48.43
2019-04-23T22:23:50.613Z,48.63
2019-04-23T22:25:56.349Z,48.75
2019-04-23T22:27:54.885Z,48.88
2019-04-23T22:29:59.062Z,48.98
2019-04-23T22:32:02.507Z,49.15
2019-04-23T22:36:16.491Z,49.39
2019-04-23T22:40:25.374Z,49.64
2019-04-23T22:44:51.091Z,49.96
2019-04-23T22:46:52.502Z,49.93
2019-04-23T22:49:17.647Z,49.67
2019-04-23T22:51:21.035Z,49.66
2019-04-23T22:53:18.934Z,49.72
2019-04-23T22:57:37.140Z,49.79
2019-04-23T23:01:59.237Z,49.91
2019-04-23T23:03:52.878Z,49.84
2019-04-23T23:06:11.010Z,49.81
2019-04-23T23:10:18.811Z,49.94
2019-04-23T23:12:27.996Z,49.87
2019-04-23T23:14:23.842Z,49.90
2019-04-23T23:18:54.645Z,49.92
2019-04-23T23:25:03.360Z,50.08
2019-04-23T23:26:57.391Z,50.09
2019-04-23T23:29:16.026Z,50.10
2019-04-23T23:31:06.863Z,50.07
2019-04-23T23:33:19.232Z,49.99
2019-04-23T23:35:24.548Z,49.97
2019-04-23T23:37:19.048Z,50.03
2019-04-23T23:39:27.199Z,50.00
2019-04-23T23:41:46.922Z,50.13
2019-04-23T23:46:04.875Z,50.19
2019-04-23T23:47:59.463Z,50.17
2019-04-23T23:50:11.171Z,50.37
2019-04-23T23:52:02.892Z,50.45
2019-04-23T23:54:13.602Z,50.45
2019-04-23T23:56:17.765Z,50.34
2019-04-23T23:58:28.916Z,50.49
